Time;durP1;ratioP1;P1;durP2;ratioP2;P2;SDS_P1;SDS_P2;PMS_P1;PMS_P2;Temp;Humidity;BMP_temperature;BMP_pressure;BME280_temperature;BME280_humidity;BME280_pressure;Samples;Min_cycle;Max_cycle;Signal;HPM_P1;HPM_P2
2021/07/11 00:02:02;;;;;;;1.38;0.80;;;23.40;66.60;;;;;;5060323;28;20025;-28
2021/07/11 00:04:28;;;;;;;0.60;0.60;;;23.50;66.40;;;;;;5059171;28;20079;-32
2021/07/11 00:06:53;;;;;;;2.47;0.70;;;23.40;66.60;;;;;;5051660;28;20029;-32
2021/07/11 00:09:19;;;;;;;0.75;0.75;;;23.40;67.50;;;;;;5070637;28;20104;-29
2021/07/11 00:11:44;;;;;;;0.70;0.70;;;23.40;66.50;;;;;;5059824;28;20118;-27
2021/07/11 00:14:10;;;;;;;1.15;0.68;;;23.40;66.80;;;;;;5059740;28;20421;-30
2021/07/11 00:16:36;;;;;;;1.13;0.70;;;23.40;66.70;;;;;;5060033;28;20021;-26
2021/07/11 00:19:01;;;;;;;0.70;0.70;;;23.40;66.50;;;;;;5058340;28;20043;-28
2021/07/11 00:21:27;;;;;;;0.80;0.80;;;23.40;66.70;;;;;;5057219;28;20554;-33
2021/07/11 00:23:53;;;;;;;1.15;0.70;;;23.30;66.60;;;;;;5059098;28;20025;-31
2021/07/11 00:26:18;;;;;;;1.13;1.00;;;23.30;66.70;;;;;;5060251;28;20033;-28
2021/07/11 00:28:44;;;;;;;0.93;0.75;;;23.40;66.40;;;;;;5067568;28;20524;-27
2021/07/11 00:31:10;;;;;;;0.63;0.63;;;23.40;66.40;;;;;;5069393;28;20032;-29
2021/07/11 00:33:35;;;;;;;0.70;0.70;;;23.40;66.50;;;;;;5055328;28;20029;-30
2021/07/11 00:36:01;;;;;;;1.17;0.63;;;23.30;66.80;;;;;;5072049;28;20583;-27
2021/07/11 00:38:27;;;;;;;0.85;0.60;;;23.30;66.80;;;;;;5060636;28;20040;-31
2021/07/11 00:40:53;;;;;;;0.50;0.50;;;23.30;66.60;;;;;;5041589;28;20033;-26
2021/07/11 00:43:19;;;;;;;0.57;0.57;;;23.30;66.60;;;;;;5057071;28;20017;-30
2021/07/11 00:45:44;;;;;;;0.50;0.50;;;23.30;66.70;;;;;;5071832;28;20075;-30
2021/07/11 00:48:10;;;;;;;0.50;0.50;;;23.30;67.50;;;;;;5036766;28;20028;-32
2021/07/11 00:50:35;;;;;;;1.95;0.70;;;23.30;66.60;;;;;;5059416;28;20448;-30
2021/07/11 00:53:01;;;;;;;0.65;0.60;;;23.20;66.70;;;;;;5059001;28;20399;-30
2021/07/11 00:55:27;;;;;;;0.45;0.45;;;23.30;66.70;;;;;;5041578;28;20036;-31
2021/07/11 00:57:53;;;;;;;0.68;0.60;;;23.20;66.80;;;;;;5056271;28;20563;-29
2021/07/11 01:00:19;;;;;;;0.57;0.52;;;23.20;67.70;;;;;;5056892;28;20058;-30
2021/07/11 01:03:00;;;;;;;0.63;0.52;;;23.30;67.10;;;;;;5059121;28;20025;-28
2021/07/11 01:05:25;;;;;;;0.77;0.77;;;23.20;66.90;;;;;;5067243;28;20040;-30
2021/07/11 01:08:13;;;;;;;0.60;0.60;;;23.20;66.60;;;;;;5049591;28;20028;-29
2021/07/11 01:10:46;;;;;;;0.57;0.57;;;23.20;66.60;;;;;;5032421;28;20078;-27
2021/07/11 01:13:13;;;;;;;1.63;0.68;;;23.30;66.70;;;;;;5058285;28;20026;-34
2021/07/11 01:15:40;;;;;;;0.50;0.50;;;23.30;66.70;;;;;;5057616;28;20043;-33
2021/07/11 01:18:06;;;;;;;0.73;0.73;;;23.20;67.00;;;;;;5073176;28;20464;-36
2021/07/11 01:20:38;;;;;;;0.60;0.60;;;23.20;66.90;;;;;;5073997;28;20107;-32
2021/07/11 01:23:06;;;;;;;0.70;0.70;;;23.20;66.80;;;;;;5063146;28;20033;-37
2021/07/11 01:25:44;;;;;;;0.70;0.70;;;23.20;67.00;;;;;;5057911;28;20078;-34
2021/07/11 01:28:12;;;;;;;0.63;0.63;;;23.30;66.80;;;;;;5067468;28;20021;-37
2021/07/11 01:30:38;;;;;;;0.80;0.80;;;23.20;66.80;;;;;;5071112;28;20085;-34
2021/07/11 01:33:06;;;;;;;0.80;0.80;;;23.20;66.70;;;;;;5051014;28;20028;-33
2021/07/11 01:35:33;;;;;;;0.60;0.60;;;23.30;66.90;;;;;;5023225;28;20426;-31
2021/07/11 01:37:58;;;;;;;0.60;0.60;;;23.20;67.00;;;;;;5040902;28;20064;-27
2021/07/11 01:40:24;;;;;;;0.63;0.63;;;23.20;67.00;;;;;;5040386;28;20055;-31
2021/07/11 01:42:51;;;;;;;0.80;0.80;;;23.20;66.90;;;;;;5037190;28;20071;-29
2021/07/11 01:45:17;;;;;;;0.90;0.90;;;23.20;66.90;;;;;;5038473;28;20119;-29
2021/07/11 01:47:42;;;;;;;0.65;0.60;;;23.20;67.00;;;;;;5060725;28;20108;-37
2021/07/11 01:50:08;;;;;;;0.80;0.68;;;23.20;67.10;;;;;;5059876;28;20040;-33
2021/07/11 01:52:34;;;;;;;0.82;0.82;;;23.20;67.00;;;;;;5040541;28;20393;-31
2021/07/11 01:54:59;;;;;;;0.73;0.73;;;23.20;67.00;;;;;;5051510;28;20458;-31
2021/07/11 01:57:25;;;;;;;0.82;0.70;;;23.20;66.90;;;;;;5037897;28;20021;-31
2021/07/11 01:59:51;;;;;;;1.27;0.90;;;23.30;66.80;;;;;;5057193;28;20112;-29
2021/07/11 02:02:16;;;;;;;1.92;0.68;;;23.20;66.90;;;;;;5063723;28;20016;-29
2021/07/11 02:04:42;;;;;;;0.70;0.70;;;23.20;66.70;;;;;;5065321;28;20024;-29
2021/07/11 02:07:07;;;;;;;0.80;0.80;;;23.20;66.80;;;;;;5057132;28;20098;-33
2021/07/11 02:09:34;;;;;;;0.80;0.80;;;23.20;66.80;;;;;;5054187;28;20094;-30
2021/07/11 02:12:00;;;;;;;1.02;0.80;;;23.20;66.90;;;;;;5039133;28;20033;-30
2021/07/11 02:14:28;;;;;;;0.70;0.70;;;23.20;66.80;;;;;;5039967;28;20037;-34
2021/07/11 02:17:12;;;;;;;1.15;0.70;;;23.10;67.90;;;;;;5039186;28;20021;-31
2021/07/11 02:19:38;;;;;;;2.53;0.90;;;23.10;67.10;;;;;;5057810;28;20028;-30
2021/07/11 02:22:05;;;;;;;0.88;0.88;;;23.10;67.20;;;;;;5056479;28;20017;-31
2021/07/11 02:24:41;;;;;;;0.98;0.98;;;23.10;67.10;;;;;;5020096;28;20045;-28
2021/07/11 02:27:08;;;;;;;0.70;0.70;;;23.20;66.90;;;;;;5024091;28;20013;-32
2021/07/11 02:29:42;;;;;;;0.60;0.60;;;23.10;67.00;;;;;;5057656;28;20082;-29
2021/07/11 02:32:09;;;;;;;0.88;0.77;;;23.10;67.10;;;;;;5040703;28;20032;-32
2021/07/11 02:34:38;;;;;;;1.60;0.70;;;23.10;67.80;;;;;;5036402;28;20041;-30
2021/07/11 02:37:05;;;;;;;0.70;0.70;;;23.10;67.10;;;;;;5055015;28;20070;-33
2021/07/11 02:39:31;;;;;;;0.85;0.85;;;23.10;67.20;;;;;;5053193;28;20021;-27
2021/07/11 02:42:01;;;;;;;0.70;0.70;;;23.10;67.00;;;;;;5056666;28;20186;-29
2021/07/11 02:44:27;;;;;;;0.80;0.80;;;23.10;66.80;;;;;;5039903;28;20541;-30
2021/07/11 02:47:06;;;;;;;0.90;0.90;;;23.10;66.90;;;;;;5058348;28;20124;-30
2021/07/11 02:49:32;;;;;;;1.13;0.80;;;23.10;66.90;;;;;;5032889;28;20036;-29
2021/07/11 02:51:58;;;;;;;0.70;0.70;;;23.10;67.00;;;;;;5068317;28;20012;-28
2021/07/11 02:54:28;;;;;;;0.80;0.80;;;23.10;66.90;;;;;;5056090;28;20033;-26
2021/07/11 02:57:00;;;;;;;0.73;0.73;;;23.10;66.80;;;;;;5056724;28;20107;-27
2021/07/11 02:59:25;;;;;;;0.65;0.65;;;23.10;67.00;;;;;;5052019;28;20040;-33
2021/07/11 03:01:52;;;;;;;0.90;0.90;;;23.10;67.10;;;;;;5050078;28;20029;-31
2021/07/11 03:04:19;;;;;;;0.80;0.80;;;23.10;67.10;;;;;;5053832;28;20039;-31
2021/07/11 03:06:44;;;;;;;0.60;0.60;;;23.10;67.00;;;;;;5039623;28;20035;-29
2021/07/11 03:09:10;;;;;;;0.60;0.60;;;23.10;66.90;;;;;;5042505;28;20474;-31
2021/07/11 03:11:38;;;;;;;0.70;0.70;;;23.10;67.10;;;;;;5061126;28;20045;-30
2021/07/11 03:14:03;;;;;;;0.95;0.90;;;23.10;67.10;;;;;;5061018;28;20045;-30
2021/07/11 03:16:29;;;;;;;0.75;0.75;;;23.10;67.20;;;;;;5040166;28;20025;-30
2021/07/11 03:18:55;;;;;;;1.05;0.95;;;23.10;67.10;;;;;;5007510;28;20405;-32
2021/07/11 03:21:22;;;;;;;0.60;0.60;;;23.10;67.20;;;;;;5054456;28;20017;-29
2021/07/11 03:23:47;;;;;;;1.00;0.88;;;23.10;67.20;;;;;;5070481;28;20028;-33
2021/07/11 03:26:13;;;;;;;0.57;0.57;;;23.10;67.20;;;;;;5051481;28;20017;-29
2021/07/11 03:28:38;;;;;;;0.70;0.70;;;23.10;67.10;;;;;;5034853;28;20036;-27
2021/07/11 03:31:06;;;;;;;0.70;0.70;;;23.00;67.30;;;;;;5036410;28;20025;-29
2021/07/11 03:33:31;;;;;;;0.70;0.70;;;23.10;68.00;;;;;;5072391;28;20095;-26
2021/07/11 03:35:58;;;;;;;0.60;0.60;;;23.00;67.30;;;;;;5041323;28;20497;-26
2021/07/11 03:38:29;;;;;;;0.80;0.80;;;23.00;67.10;;;;;;5042696;28;20394;-27
2021/07/11 03:40:55;;;;;;;0.80;0.80;;;23.00;67.00;;;;;;5042758;28;20390;-31
2021/07/11 03:43:24;;;;;;;0.70;0.60;;;23.00;67.20;;;;;;5057768;28;20154;-30
2021/07/11 03:45:52;;;;;;;0.73;0.73;;;23.00;67.10;;;;;;5039941;28;20536;-29
2021/07/11 03:48:20;;;;;;;0.60;0.60;;;23.00;68.00;;;;;;5058276;28;20028;-28
2021/07/11 03:50:50;;;;;;;0.50;0.50;;;23.00;67.20;;;;;;5044107;28;20379;-29
2021/07/11 03:53:18;;;;;;;0.70;0.70;;;23.00;67.30;;;;;;5042140;28;20025;-31
2021/07/11 03:55:44;;;;;;;0.80;0.80;;;23.00;67.20;;;;;;5026064;28;20063;-32
2021/07/11 03:58:09;;;;;;;0.60;0.60;;;23.00;67.20;;;;;;5039794;28;20470;-35
2021/07/11 04:00:35;;;;;;;0.57;0.57;;;23.00;67.30;;;;;;5054626;28;20056;-27
2021/07/11 04:03:02;;;;;;;1.15;0.73;;;23.00;67.10;;;;;;5036390;28;20048;-28
2021/07/11 04:05:29;;;;;;;0.50;0.50;;;23.00;67.20;;;;;;5060234;28;20033;-29
2021/07/11 04:07:55;;;;;;;0.60;0.60;;;23.00;67.20;;;;;;5060016;28;20480;-32
2021/07/11 04:10:25;;;;;;;0.70;0.65;;;22.90;67.30;;;;;;5059983;28;20120;-27
2021/07/11 04:12:51;;;;;;;0.80;0.80;;;22.90;67.30;;;;;;5056820;28;20033;-34
2021/07/11 04:15:17;;;;;;;0.57;0.57;;;22.90;67.30;;;;;;5040176;28;20044;-29
2021/07/11 04:17:45;;;;;;;0.80;0.80;;;22.90;67.20;;;;;;5067720;28;20024;-32
2021/07/11 04:20:11;;;;;;;0.80;0.80;;;23.00;67.20;;;;;;5050258;28;20035;-26
2021/07/11 04:22:37;;;;;;;0.55;0.55;;;22.90;67.20;;;;;;5033508;28;20023;-32
2021/07/11 04:25:03;;;;;;;0.75;0.75;;;22.90;67.30;;;;;;5036724;28;20025;-30
2021/07/11 04:27:28;;;;;;;1.15;0.70;;;22.90;67.20;;;;;;5057052;28;20074;-31
2021/07/11 04:29:54;;;;;;;0.70;0.70;;;22.90;67.20;;;;;;5041345;28;20083;-28
2021/07/11 04:32:19;;;;;;;0.50;0.50;;;22.90;67.20;;;;;;5046250;28;20389;-31
2021/07/11 04:34:45;;;;;;;0.80;0.80;;;22.90;67.10;;;;;;5065438;28;20112;-32
2021/07/11 04:37:11;;;;;;;0.70;0.70;;;22.90;67.10;;;;;;5059035;28;20021;-28
2021/07/11 04:39:37;;;;;;;0.73;0.73;;;22.90;67.20;;;;;;5055739;28;20032;-28
2021/07/11 04:42:03;;;;;;;0.70;0.70;;;22.90;67.30;;;;;;5058888;28;20024;-33
2021/07/11 04:44:29;;;;;;;0.60;0.60;;;22.90;67.20;;;;;;5055454;28;20167;-36
2021/07/11 04:46:54;;;;;;;0.60;0.60;;;22.90;67.20;;;;;;5062057;28;20033;-39
2021/07/11 04:49:22;;;;;;;0.60;0.60;;;22.90;67.30;;;;;;5067835;28;20053;-33
2021/07/11 04:51:51;;;;;;;0.70;0.70;;;22.90;67.40;;;;;;5071419;28;20028;-29
2021/07/11 04:54:17;;;;;;;0.60;0.60;;;22.90;67.30;;;;;;5060848;28;20452;-30
2021/07/11 04:56:42;;;;;;;0.80;0.80;;;22.80;67.30;;;;;;5059569;28;20032;-29
2021/07/11 04:59:08;;;;;;;0.60;0.60;;;22.90;67.30;;;;;;5059428;28;20064;-26
2021/07/11 05:01:34;;;;;;;0.63;0.63;;;22.90;67.10;;;;;;5059152;28;20023;-32
2021/07/11 05:04:00;;;;;;;0.70;0.70;;;22.90;67.20;;;;;;5056902;28;20052;-35
2021/07/11 05:06:26;;;;;;;0.70;0.70;;;22.90;67.30;;;;;;5071249;28;20020;-33
2021/07/11 05:08:51;;;;;;;0.88;0.60;;;22.90;67.20;;;;;;5068140;28;20481;-31
2021/07/11 05:11:17;;;;;;;1.55;0.70;;;22.80;67.40;;;;;;5061420;28;20044;-33
2021/07/11 05:13:43;;;;;;;0.73;0.73;;;22.80;67.40;;;;;;5059696;28;20064;-30
2021/07/11 05:16:08;;;;;;;0.68;0.68;;;22.80;67.40;;;;;;5069103;28;20520;-32
2021/07/11 05:18:34;;;;;;;0.70;0.70;;;22.90;67.30;;;;;;5053803;28;20028;-29
2021/07/11 05:21:00;;;;;;;0.63;0.63;;;22.90;67.30;;;;;;5056920;28;20025;-29
2021/07/11 05:23:25;;;;;;;0.70;0.70;;;22.90;67.20;;;;;;5064357;28;20024;-31
2021/07/11 05:25:52;;;;;;;0.57;0.57;;;22.90;67.30;;;;;;5066305;28;20031;-29
2021/07/11 05:28:18;;;;;;;0.55;0.55;;;22.80;67.40;;;;;;5066008;28;20013;-30
2021/07/11 05:30:44;;;;;;;0.93;0.93;;;22.80;67.50;;;;;;5070052;28;20043;-33
2021/07/11 05:33:09;;;;;;;0.75;0.60;;;22.80;67.40;;;;;;5068198;28;20036;-31
2021/07/11 05:35:35;;;;;;;0.93;0.77;;;22.80;67.50;;;;;;5056071;28;20032;-33
2021/07/11 05:38:01;;;;;;;1.92;0.73;;;22.80;67.50;;;;;;5057323;28;20029;-33
2021/07/11 05:40:26;;;;;;;0.60;0.60;;;22.80;67.40;;;;;;5057418;28;20063;-33
2021/07/11 05:42:52;;;;;;;0.60;0.60;;;22.80;67.50;;;;;;5054654;28;20444;-28
2021/07/11 05:45:18;;;;;;;0.57;0.57;;;22.80;67.40;;;;;;5055257;28;20116;-31
2021/07/11 05:47:43;;;;;;;0.80;0.80;;;22.80;67.40;;;;;;5057327;28;20065;-34
2021/07/11 05:50:09;;;;;;;0.70;0.70;;;22.80;67.40;;;;;;5060244;28;20028;-30
2021/07/11 05:52:35;;;;;;;0.60;0.60;;;22.80;67.50;;;;;;5065516;28;20821;-30
2021/07/11 05:55:01;;;;;;;0.60;0.50;;;22.70;67.60;;;;;;5068361;28;20112;-33
2021/07/11 05:57:28;;;;;;;0.65;0.65;;;22.70;67.60;;;;;;5055039;28;20471;-34
2021/07/11 05:59:54;;;;;;;0.60;0.60;;;22.70;67.40;;;;;;5056128;28;20036;-34
2021/07/11 06:02:21;;;;;;;1.05;0.60;;;22.80;67.50;;;;;;5044029;28;20505;-32
2021/07/11 06:04:46;;;;;;;2.78;0.70;;;22.70;67.60;;;;;;5058222;28;20485;-31
2021/07/11 06:07:12;;;;;;;0.82;0.60;;;22.80;67.40;;;;;;5067525;28;20050;-28
2021/07/11 06:09:37;;;;;;;0.77;0.77;;;22.80;67.40;;;;;;5052813;28;20466;-30
2021/07/11 06:12:03;;;;;;;0.50;0.50;;;22.80;67.60;;;;;;5056303;28;20079;-30
2021/07/11 06:14:29;;;;;;;0.57;0.57;;;22.80;67.50;;;;;;5056630;28;20589;-31
2021/07/11 06:16:55;;;;;;;0.80;0.80;;;22.80;67.40;;;;;;5056933;28;20394;-31
2021/07/11 06:19:20;;;;;;;0.60;0.60;;;22.80;67.40;;;;;;5057195;28;20025;-31
2021/07/11 06:21:47;;;;;;;0.68;0.68;;;22.80;67.50;;;;;;5054894;28;20084;-33
2021/07/11 06:24:12;;;;;;;0.50;0.50;;;22.80;67.50;;;;;;5071138;28;20421;-31
2021/07/11 06:26:38;;;;;;;0.55;0.55;;;22.80;67.40;;;;;;5044678;28;20104;-33
2021/07/11 06:29:04;;;;;;;0.60;0.60;;;22.80;67.40;;;;;;5060711;28;20033;-31
2021/07/11 06:31:29;;;;;;;2.25;0.70;;;22.70;67.50;;;;;;5058937;28;20039;-31
2021/07/11 06:33:55;;;;;;;1.48;0.80;;;22.70;67.70;;;;;;5061424;28;20040;-30
2021/07/11 06:36:20;;;;;;;1.40;0.60;;;22.80;67.50;;;;;;5067773;28;20115;-34
2021/07/11 06:38:46;;;;;;;0.60;0.60;;;22.70;67.40;;;;;;5053657;28;20025;-31
2021/07/11 06:41:11;;;;;;;0.80;0.80;;;22.80;67.60;;;;;;5053519;28;20025;-34
2021/07/11 06:43:37;;;;;;;1.20;0.70;;;22.80;67.30;;;;;;5064687;28;20028;-33
2021/07/11 06:46:03;;;;;;;1.65;0.60;;;22.80;67.50;;;;;;5066991;28;20406;-33
2021/07/11 06:48:28;;;;;;;0.70;0.70;;;22.80;67.50;;;;;;5067783;28;20031;-33
2021/07/11 06:50:55;;;;;;;0.57;0.57;;;22.70;67.70;;;;;;5066926;28;20392;-31
2021/07/11 06:53:20;;;;;;;0.70;0.70;;;22.70;67.70;;;;;;5064625;28;20029;-33
2021/07/11 06:55:46;;;;;;;0.60;0.60;;;22.70;67.50;;;;;;5064935;28;20043;-35
2021/07/11 06:58:12;;;;;;;0.55;0.55;;;22.80;67.50;;;;;;5066901;28;20043;-34
2021/07/11 07:00:37;;;;;;;0.50;0.50;;;22.70;67.40;;;;;;5056064;28;20492;-33
2021/07/11 07:03:03;;;;;;;0.63;0.50;;;22.70;67.50;;;;;;5058906;28;20036;-36
2021/07/11 07:05:28;;;;;;;0.70;0.70;;;22.70;67.60;;;;;;5052477;28;20143;-37
2021/07/11 07:07:54;;;;;;;0.80;0.70;;;22.70;67.60;;;;;;5052960;28;20032;-37
2021/07/11 07:10:23;;;;;;;0.40;0.40;;;22.70;67.80;;;;;;5053254;28;20049;-29
2021/07/11 07:12:48;;;;;;;3.72;1.13;;;22.70;67.80;;;;;;5061259;28;20022;-30
2021/07/11 07:15:14;;;;;;;0.60;0.60;;;22.60;68.00;;;;;;5051320;28;20043;-28
2021/07/11 07:17:40;;;;;;;0.60;0.60;;;22.60;68.00;;;;;;5063038;28;20028;-32
2021/07/11 07:20:07;;;;;;;0.70;0.70;;;22.60;67.90;;;;;;5050075;28;20131;-35
2021/07/11 07:22:33;;;;;;;0.45;0.45;;;22.70;67.90;;;;;;5067203;28;20025;-31
2021/07/11 07:24:59;;;;;;;0.57;0.57;;;22.70;67.70;;;;;;5072014;28;20039;-31
2021/07/11 07:27:24;;;;;;;0.52;0.52;;;22.70;68.30;;;;;;5055680;28;20096;-35
2021/07/11 07:29:50;;;;;;;0.60;0.60;;;22.70;68.80;;;;;;5065389;28;20063;-30
2021/07/11 07:32:15;;;;;;;0.57;0.57;;;22.70;69.10;;;;;;5065491;28;20032;-32
2021/07/11 07:34:41;;;;;;;0.40;0.40;;;22.70;69.30;;;;;;5056266;28;20048;-29
2021/07/11 07:37:07;;;;;;;1.20;0.60;;;22.70;69.60;;;;;;5065684;28;20024;-32
2021/07/11 07:39:32;;;;;;;0.80;0.57;;;22.70;69.50;;;;;;5069325;28;20047;-31
2021/07/11 07:41:58;;;;;;;0.50;0.50;;;22.70;70.30;;;;;;5060092;28;20492;-28
2021/07/11 07:44:23;;;;;;;22.27;0.68;;;22.70;69.60;;;;;;5044659;28;20037;-26
2021/07/11 07:46:49;;;;;;;0.98;0.68;;;22.70;69.30;;;;;;5057420;28;20028;-25
2021/07/11 07:49:15;;;;;;;2.10;0.95;;;22.70;69.50;;;;;;5067891;28;20052;-29
2021/07/11 07:51:40;;;;;;;1.02;0.90;;;22.70;69.30;;;;;;5068156;28;20037;-31
2021/07/11 07:54:06;;;;;;;1.95;1.80;;;22.70;69.30;;;;;;5073731;28;20039;-29
2021/07/11 07:56:32;;;;;;;1.35;1.35;;;22.70;69.80;;;;;;5067501;28;20031;-30
2021/07/11 07:58:58;;;;;;;1.75;1.65;;;22.70;70.00;;;;;;5067779;28;20413;-33
2021/07/11 08:01:24;;;;;;;2.00;1.90;;;22.70;70.10;;;;;;5063062;28;20031;-31
2021/07/11 08:03:49;;;;;;;2.58;2.47;;;22.70;70.60;;;;;;5068703;28;20100;-35
2021/07/11 08:06:15;;;;;;;3.20;2.78;;;22.70;71.70;;;;;;5063109;28;20540;-30
2021/07/11 08:08:41;;;;;;;2.88;2.67;;;22.70;71.30;;;;;;5066705;28;20066;-31
2021/07/11 08:11:07;;;;;;;2.53;2.33;;;22.60;71.40;;;;;;5068341;28;20048;-33
2021/07/11 08:13:37;;;;;;;2.90;2.70;;;22.60;71.50;;;;;;5046898;28;20503;-32
2021/07/11 08:16:03;;;;;;;2.92;2.67;;;22.70;71.00;;;;;;5071215;28;20050;-38
2021/07/11 08:18:29;;;;;;;2.47;2.28;;;22.70;70.20;;;;;;5066935;28;20112;-34
2021/07/11 08:20:55;;;;;;;1.92;1.83;;;22.60;70.00;;;;;;5069298;28;20100;-33
2021/07/11 08:23:20;;;;;;;2.03;1.92;;;22.50;69.90;;;;;;5070868;28;20020;-36
2021/07/11 08:25:46;;;;;;;1.70;1.60;;;22.50;69.70;;;;;;5070305;28;20062;-36
2021/07/11 08:28:12;;;;;;;1.95;1.77;;;22.50;69.60;;;;;;5069591;28;20028;-33
2021/07/11 08:30:38;;;;;;;1.63;1.52;;;22.50;69.40;;;;;;5066665;28;20029;-35
2021/07/11 08:33:03;;;;;;;1.70;1.60;;;22.50;69.30;;;;;;5070658;28;20059;-36
2021/07/11 08:35:29;;;;;;;1.80;1.70;;;22.50;69.10;;;;;;5068471;28;20044;-32
2021/07/11 08:37:55;;;;;;;2.47;1.80;;;22.50;69.00;;;;;;5069490;28;20035;-38
2021/07/11 08:40:20;;;;;;;1.63;1.52;;;22.50;68.80;;;;;;5066148;28;20119;-31
2021/07/11 08:42:48;;;;;;;1.50;1.40;;;22.50;68.80;;;;;;5067971;28;20665;-30
2021/07/11 08:45:14;;;;;;;1.60;1.50;;;22.50;69.00;;;;;;5052156;28;20020;-33
2021/07/11 08:47:40;;;;;;;1.40;1.30;;;22.50;69.00;;;;;;5062962;28;20055;-39
2021/07/11 08:50:06;;;;;;;1.60;1.38;;;22.50;69.80;;;;;;5044977;28;20467;-35
2021/07/11 08:52:34;;;;;;;1.65;1.40;;;22.40;69.00;;;;;;5065588;28;20833;-34
2021/07/11 08:54:59;;;;;;;1.75;1.65;;;22.50;68.80;;;;;;5050100;28;20075;-35
2021/07/11 08:57:25;;;;;;;2.08;1.50;;;22.50;68.70;;;;;;5049189;28;20048;-34
2021/07/11 08:59:50;;;;;;;2.40;1.45;;;22.50;68.80;;;;;;5068165;28;20033;-33
2021/07/11 09:02:16;;;;;;;1.50;1.40;;;22.60;68.60;;;;;;5065980;28;20498;-29
2021/07/11 09:04:46;;;;;;;2.03;1.83;;;22.60;69.40;;;;;;5069658;28;20024;-30
2021/07/11 09:07:21;;;;;;;2.10;1.25;;;22.60;68.80;;;;;;5066702;28;20021;-29
2021/07/11 09:09:56;;;;;;;1.50;1.40;;;22.70;68.80;;;;;;5049956;28;20029;-31
2021/07/11 09:12:22;;;;;;;4.40;1.40;;;22.70;69.60;;;;;;5047187;28;20025;-34
2021/07/11 09:14:48;;;;;;;2.17;1.45;;;22.70;69.90;;;;;;5051050;28;20043;-29
2021/07/11 09:17:14;;;;;;;1.80;1.50;;;22.70;70.60;;;;;;5066914;28;20035;-34
2021/07/11 09:19:41;;;;;;;1.60;1.50;;;22.70;70.60;;;;;;5065302;28;20028;-35
2021/07/11 09:22:14;;;;;;;2.05;1.65;;;22.80;71.20;;;;;;5068064;28;20038;-31
2021/07/11 09:25:04;;;;;;;5.68;1.67;;;22.80;71.20;;;;;;5067749;28;20074;-34
2021/07/11 09:27:31;;;;;;;1.77;1.58;;;22.70;71.80;;;;;;5068902;28;20039;-34
2021/07/11 09:29:58;;;;;;;1.83;1.73;;;22.70;71.70;;;;;;5051247;28;20378;-28
2021/07/11 09:32:28;;;;;;;1.52;1.42;;;22.60;72.00;;;;;;5065934;28;20056;-33
2021/07/11 09:34:54;;;;;;;3.80;1.55;;;22.60;72.00;;;;;;5066309;28;20033;-28
2021/07/11 09:37:20;;;;;;;1.50;1.40;;;22.50;72.00;;;;;;5052276;28;20028;-32
2021/07/11 09:39:52;;;;;;;1.58;1.33;;;22.50;71.70;;;;;;5067777;28;20120;-32
2021/07/11 09:42:34;;;;;;;1.60;1.50;;;22.50;71.50;;;;;;5068780;28;20025;-36
2021/07/11 09:45:02;;;;;;;6.53;1.80;;;22.50;71.30;;;;;;5067286;28;20032;-31
2021/07/11 09:47:29;;;;;;;1.60;1.40;;;22.50;71.40;;;;;;5065911;28;20098;-32
2021/07/11 09:50:04;;;;;;;2.83;1.60;;;22.50;71.30;;;;;;5065900;28;20052;-30
2021/07/11 09:52:32;;;;;;;1.30;1.20;;;22.50;71.00;;;;;;5066590;28;20614;-31
2021/07/11 09:55:20;;;;;;;1.70;1.40;;;22.50;71.00;;;;;;5068759;28;20428;-32
2021/07/11 09:57:53;;;;;;;1.48;1.38;;;22.50;70.90;;;;;;5067596;28;20031;-34
2021/07/11 10:00:21;;;;;;;1.20;1.20;;;22.50;70.90;;;;;;5070587;28;20024;-32
2021/07/11 10:02:48;;;;;;;1.83;1.67;;;22.50;70.90;;;;;;5070960;28;20021;-37
2021/07/11 10:05:15;;;;;;;1.70;1.60;;;22.50;70.90;;;;;;5069420;28;20039;-33
2021/07/11 10:07:41;;;;;;;1.50;1.40;;;22.50;70.80;;;;;;5066046;28;20405;-33
2021/07/11 10:10:12;;;;;;;1.38;1.30;;;22.50;70.90;;;;;;5066572;28;20090;-32
2021/07/11 10:12:38;;;;;;;1.50;1.40;;;22.50;70.90;;;;;;5069592;28;20024;-34
2021/07/11 10:15:12;;;;;;;1.55;1.45;;;22.50;70.80;;;;;;5071070;28;20038;-31
2021/07/11 10:17:58;;;;;;;;;;;22.50;70.80;;;;;;5069941;28;20025;-36
2021/07/11 10:20:32;;;;;;;1.42;1.30;;;22.50;70.80;;;;;;5066658;28;19908;-29
2021/07/11 10:22:58;;;;;;;1.50;1.40;;;22.50;70.40;;;;;;5069158;28;20075;-35
2021/07/11 10:25:25;;;;;;;1.33;1.23;;;22.50;71.00;;;;;;5069234;28;20020;-32
2021/07/11 10:28:08;;;;;;;1.48;1.27;;;22.50;70.10;;;;;;5069090;28;20025;-34
2021/07/11 10:30:34;;;;;;;1.63;1.40;;;22.50;70.10;;;;;;5068316;28;20021;-32
2021/07/11 10:33:26;;;;;;;2.60;1.20;;;22.50;70.40;;;;;;5052893;28;20379;-31
2021/07/11 10:35:55;;;;;;;1.05;1.05;;;22.50;70.30;;;;;;5066102;28;20048;-31
2021/07/11 10:38:30;;;;;;;2.15;1.50;;;22.50;70.20;;;;;;5067508;28;20028;-37
2021/07/11 10:41:13;;;;;;;1.33;1.33;;;22.50;70.10;;;;;;5069201;28;20036;-34
2021/07/11 10:43:39;;;;;;;1.37;1.27;;;22.40;70.00;;;;;;5068493;28;20056;-32
2021/07/11 10:46:05;;;;;;;1.63;1.52;;;22.40;69.80;;;;;;5069112;28;20056;-34
2021/07/11 10:48:31;;;;;;;1.70;1.60;;;22.40;70.00;;;;;;5069746;28;20062;-33
2021/07/11 10:50:56;;;;;;;1.60;1.50;;;22.40;69.90;;;;;;5070023;28;20032;-38
2021/07/11 10:53:22;;;;;;;1.60;1.50;;;22.40;69.60;;;;;;5066316;28;20024;-30
2021/07/11 10:55:47;;;;;;;2.22;1.42;;;22.40;70.60;;;;;;5069010;28;20458;-35
2021/07/11 10:58:18;;;;;;;1.42;1.30;;;22.40;69.80;;;;;;5034302;28;20099;-36
2021/07/11 11:00:44;;;;;;;1.38;1.27;;;22.40;69.80;;;;;;5068903;28;20107;-29
2021/07/11 11:03:22;;;;;;;1.33;1.23;;;22.40;69.90;;;;;;5069312;28;20073;-39
2021/07/11 11:05:49;;;;;;;1.35;1.30;;;22.40;69.60;;;;;;5068757;28;20036;-29
2021/07/11 11:08:16;;;;;;;1.67;1.58;;;22.40;69.70;;;;;;5068371;28;20047;-33
2021/07/11 11:10:42;;;;;;;1.13;1.13;;;22.40;69.50;;;;;;5068259;28;20082;-30
2021/07/11 11:13:09;;;;;;;1.40;1.40;;;22.40;69.40;;;;;;5068438;28;20009;-33
2021/07/11 11:15:37;;;;;;;1.70;1.60;;;22.40;70.20;;;;;;5072703;28;20048;-38
2021/07/11 11:18:21;;;;;;;1.52;1.42;;;22.40;69.50;;;;;;5072536;28;20392;-31
2021/07/11 11:20:53;;;;;;;1.50;1.40;;;22.40;69.50;;;;;;5073602;28;20103;-29
2021/07/11 11:23:19;;;;;;;1.17;1.17;;;22.40;69.50;;;;;;5072082;28;20032;-28
2021/07/11 11:25:46;;;;;;;1.55;1.45;;;22.40;69.70;;;;;;5072485;28;20025;-33
2021/07/11 11:28:12;;;;;;;1.20;1.20;;;22.40;69.60;;;;;;5072220;28;20020;-31
2021/07/11 11:30:38;;;;;;;1.20;1.10;;;22.40;69.60;;;;;;5054379;28;20063;-33
2021/07/11 11:33:03;;;;;;;1.20;1.10;;;22.40;69.40;;;;;;5073648;28;20504;-32
2021/07/11 11:35:31;;;;;;;1.50;1.40;;;22.40;69.40;;;;;;5071938;28;20101;-35
2021/07/11 11:38:15;;;;;;;1.45;1.35;;;22.40;69.50;;;;;;5071752;28;20438;-36
2021/07/11 11:40:41;;;;;;;1.40;1.30;;;22.50;69.20;;;;;;5071730;28;20028;-33
2021/07/11 11:43:06;;;;;;;1.55;1.45;;;22.50;69.10;;;;;;5071521;28;20028;-30
2021/07/11 11:45:34;;;;;;;2.22;1.30;;;22.50;68.70;;;;;;5072337;28;20104;-32
2021/07/11 11:48:07;;;;;;;1.33;1.23;;;22.60;68.40;;;;;;5069064;28;20142;-26
2021/07/11 11:50:34;;;;;;;1.30;1.20;;;22.60;68.20;;;;;;5069621;28;20489;-31
2021/07/11 11:53:07;;;;;;;1.20;1.20;;;22.60;68.40;;;;;;5037311;28;20025;-29
2021/07/11 11:55:34;;;;;;;1.25;1.08;;;22.60;68.50;;;;;;5071653;28;20059;-33
2021/07/11 11:58:04;;;;;;;1.35;1.25;;;22.60;68.70;;;;;;5071313;28;20441;-34
2021/07/11 12:00:30;;;;;;;1.30;1.30;;;22.60;69.40;;;;;;5066863;28;20111;-30
2021/07/11 12:03:02;;;;;;;1.40;1.30;;;22.60;68.30;;;;;;5073592;28;20159;-30
2021/07/11 12:05:32;;;;;;;1.17;1.05;;;22.60;68.00;;;;;;5068979;28;20016;-31
2021/07/11 12:07:59;;;;;;;1.38;1.38;;;22.70;67.90;;;;;;5053157;28;20037;-29
2021/07/11 12:10:26;;;;;;;1.08;1.08;;;22.70;67.90;;;;;;5071085;28;20052;-34
2021/07/11 12:12:56;;;;;;;1.20;1.20;;;22.70;67.90;;;;;;5053606;28;20040;-30
2021/07/11 12:15:31;;;;;;;1.38;1.35;;;22.70;68.70;;;;;;5054176;28;20503;-31
2021/07/11 12:18:07;;;;;;;1.35;1.23;;;22.60;68.20;;;;;;5066748;28;20512;-30
2021/07/11 12:20:39;;;;;;;1.27;1.25;;;22.60;68.10;;;;;;5069888;28;20095;-31
2021/07/11 12:23:11;;;;;;;1.85;1.30;;;22.60;68.20;;;;;;5071034;28;20082;-29
2021/07/11 12:25:39;;;;;;;1.88;1.40;;;22.60;68.40;;;;;;5052871;28;20584;-29
2021/07/11 12:28:07;;;;;;;1.23;1.13;;;22.60;68.20;;;;;;5049855;28;20029;-33
2021/07/11 12:30:35;;;;;;;1.38;1.27;;;22.70;68.10;;;;;;5070948;28;20059;-33
2021/07/11 12:33:00;;;;;;;1.50;1.40;;;22.70;67.90;;;;;;5066597;28;20558;-30
2021/07/11 12:35:26;;;;;;;1.27;1.27;;;22.70;67.60;;;;;;5070858;28;20028;-30
2021/07/11 12:37:54;;;;;;;1.45;1.38;;;22.70;67.60;;;;;;5070702;28;20043;-34
2021/07/11 12:40:21;;;;;;;1.38;1.27;;;22.70;67.50;;;;;;5069062;28;20040;-30
2021/07/11 12:42:46;;;;;;;1.33;1.23;;;22.80;67.50;;;;;;5070978;28;20025;-36
2021/07/11 12:45:17;;;;;;;1.60;1.50;;;22.80;67.50;;;;;;5053255;28;20028;-33
2021/07/11 12:47:50;;;;;;;1.38;1.27;;;22.80;67.40;;;;;;5069339;28;20033;-33
2021/07/11 12:50:15;;;;;;;1.43;1.33;;;22.80;67.40;;;;;;5068485;28;20024;-30